createdAt,value
2023-09-22T00:01:21.413Z,17.99
2023-09-22T00:03:49.604Z,17.28
2023-09-22T00:06:19.094Z,17.79
2023-09-22T00:08:46.913Z,17.65
2023-09-22T00:11:14.632Z,17.81
2023-09-22T00:13:41.601Z,17.82
2023-09-22T00:16:10.934Z,17.73
2023-09-22T00:18:40.057Z,17.56
2023-09-22T00:21:08.266Z,16.82
2023-09-22T00:23:35.789Z,17.11
2023-09-22T00:26:03.891Z,17.08
2023-09-22T00:28:31.464Z,17.14
2023-09-22T00:30:59.196Z,16.81
2023-09-22T00:33:27.450Z,17.00
2023-09-22T00:36:02.824Z,16.85
2023-09-22T00:38:31.053Z,16.25
2023-09-22T00:40:58.595Z,16.02
2023-09-22T00:43:26.133Z,16.00
2023-09-22T00:45:54.723Z,15.74
2023-09-22T00:48:25.222Z,16.57
2023-09-22T00:50:54.277Z,17.07
2023-09-22T00:53:25.350Z,16.77
2023-09-22T00:55:54.788Z,16.71
2023-09-22T00:58:22.393Z,17.08
2023-09-22T01:00:51.047Z,17.44
2023-09-22T01:03:19.227Z,17.42
2023-09-22T01:05:48.012Z,17.41
2023-09-22T01:08:15.605Z,17.40
2023-09-22T01:10:45.501Z,17.24
2023-09-22T01:13:13.494Z,17.43
2023-09-22T01:15:42.655Z,17.17
2023-09-22T01:18:11.428Z,17.42
2023-09-22T01:20:44.637Z,17.33
2023-09-22T01:23:15.089Z,17.35
2023-09-22T01:25:43.607Z,16.90
2023-09-22T01:28:12.672Z,17.16
2023-09-22T01:30:41.085Z,17.20
2023-09-22T01:33:09.504Z,17.10
2023-09-22T01:35:37.540Z,17.12
2023-09-22T01:38:16.067Z,17.34
2023-09-22T01:40:44.675Z,17.02
2023-09-22T01:43:13.693Z,16.28
2023-09-22T01:45:41.470Z,17.15
2023-09-22T01:48:10.965Z,17.27
2023-09-22T01:50:39.943Z,17.41
2023-09-22T01:53:09.253Z,17.37
2023-09-22T01:55:38.875Z,17.29
2023-09-22T01:58:08.243Z,17.19
2023-09-22T02:00:35.964Z,17.23
2023-09-22T02:03:03.982Z,17.32
2023-09-22T02:05:30.798Z,17.21
2023-09-22T02:07:58.472Z,17.33
2023-09-22T02:10:26.274Z,17.31
2023-09-22T02:12:55.323Z,17.12
2023-09-22T02:15:22.987Z,17.22
2023-09-22T02:17:50.802Z,17.11
2023-09-22T02:20:23.207Z,17.12
2023-09-22T02:22:52.061Z,17.21
2023-09-22T02:25:20.681Z,17.26
2023-09-22T02:27:50.059Z,17.32
2023-09-22T02:30:19.336Z,16.92
2023-09-22T02:32:48.715Z,17.23
2023-09-22T02:35:16.440Z,17.33
2023-09-22T02:37:44.313Z,17.31
2023-09-22T02:40:14.952Z,17.15
2023-09-22T02:42:42.574Z,17.26
2023-09-22T02:45:11.655Z,17.12
2023-09-22T02:47:42.339Z,17.05
2023-09-22T02:50:12.391Z,17.16
2023-09-22T02:52:40.744Z,17.09
2023-09-22T02:55:10.405Z,16.92
2023-09-22T02:57:38.216Z,17.02
2023-09-22T03:00:12.494Z,16.97
2023-09-22T03:02:41.481Z,17.01
2023-09-22T03:05:10.993Z,16.98
2023-09-22T03:07:38.850Z,17.01
2023-09-22T03:10:07.651Z,16.98
2023-09-22T03:12:36.742Z,17.05
2023-09-22T03:15:05.354Z,16.85
2023-09-22T03:17:33.124Z,16.98
2023-09-22T03:20:02.089Z,16.89
2023-09-22T03:22:29.655Z,16.86
2023-09-22T03:24:58.064Z,16.93
2023-09-22T03:27:25.716Z,16.90
2023-09-22T03:29:53.572Z,17.00
2023-09-22T03:32:22.353Z,17.09
2023-09-22T03:34:49.959Z,16.89
2023-09-22T03:37:19.884Z,16.85
2023-09-22T03:39:48.080Z,16.57
2023-09-22T03:42:15.649Z,16.87
2023-09-22T03:44:43.332Z,16.83
2023-09-22T03:47:10.925Z,16.91
2023-09-22T03:49:38.574Z,16.90
2023-09-22T03:52:06.436Z,16.88
2023-09-22T03:54:35.534Z,16.89
2023-09-22T03:57:03.084Z,16.58
2023-09-22T03:59:30.644Z,16.70
2023-09-22T04:01:58.184Z,16.82
2023-09-22T04:04:26.118Z,16.75
2023-09-22T04:06:53.869Z,16.61
2023-09-22T04:09:22.232Z,16.74
2023-09-22T04:11:51.158Z,16.39
2023-09-22T04:14:18.706Z,16.67
2023-09-22T04:16:46.801Z,16.74
2023-09-22T04:19:14.615Z,15.65
2023-09-22T04:21:47.203Z,16.51
2023-09-22T04:24:16.192Z,16.48
2023-09-22T04:26:44.686Z,16.68
2023-09-22T04:29:13.799Z,16.59
2023-09-22T04:31:41.470Z,16.52
2023-09-22T04:34:09.171Z,16.38
2023-09-22T04:36:36.750Z,16.47
2023-09-22T04:39:09.377Z,16.41
2023-09-22T04:41:36.896Z,16.58
2023-09-22T04:44:08.050Z,16.51
2023-09-22T04:46:36.987Z,16.41
2023-09-22T04:49:04.656Z,16.45
2023-09-22T04:51:32.350Z,16.39
2023-09-22T04:54:02.444Z,16.23
2023-09-22T04:56:30.489Z,16.24
2023-09-22T04:58:58.139Z,16.38
2023-09-22T05:01:26.008Z,16.54
2023-09-22T05:03:55.276Z,16.58
2023-09-22T05:06:23.392Z,16.61
2023-09-22T05:08:50.899Z,15.57
2023-09-22T05:11:18.412Z,16.19
2023-09-22T05:13:45.980Z,16.33
2023-09-22T05:16:14.530Z,16.40
2023-09-22T05:18:42.285Z,16.35
2023-09-22T05:21:11.395Z,16.45
2023-09-22T05:23:39.958Z,16.38
2023-09-22T05:26:08.570Z,15.94
2023-09-22T05:28:37.010Z,15.62
2023-09-22T05:31:06.047Z,16.09
2023-09-22T05:33:34.494Z,16.13
2023-09-22T05:36:02.158Z,16.19
2023-09-22T05:38:31.764Z,16.24
2023-09-22T05:41:00.059Z,16.21
2023-09-22T05:43:28.431Z,16.05
2023-09-22T05:45:57.922Z,16.22
2023-09-22T05:48:26.041Z,15.93
2023-09-22T05:50:58.106Z,15.89
2023-09-22T05:53:26.878Z,16.16
2023-09-22T05:56:07.206Z,16.27
2023-09-22T05:58:35.183Z,16.25
2023-09-22T06:01:09.554Z,16.30
2023-09-22T06:03:38.246Z,16.17
2023-09-22T06:06:07.144Z,16.14
2023-09-22T06:08:34.804Z,16.08
2023-09-22T06:11:02.670Z,16.17
2023-09-22T06:13:31.668Z,16.10
2023-09-22T06:15:59.308Z,16.09
2023-09-22T06:18:27.074Z,15.92
2023-09-22T06:20:56.809Z,16.21
2023-09-22T06:23:25.580Z,16.13
2023-09-22T06:25:54.292Z,16.10
2023-09-22T06:28:22.505Z,16.18
2023-09-22T06:30:51.468Z,16.03
2023-09-22T06:33:19.412Z,15.54
2023-09-22T06:35:47.692Z,16.05
2023-09-22T06:38:15.615Z,15.93
2023-09-22T06:40:46.008Z,16.17
2023-09-22T06:43:23.170Z,16.06
2023-09-22T06:45:53.895Z,15.80
2023-09-22T06:48:23.573Z,16.10
2023-09-22T06:50:52.540Z,16.25
2023-09-22T06:53:20.421Z,16.12
2023-09-22T06:55:48.020Z,16.29
2023-09-22T06:58:15.631Z,16.22
2023-09-22T07:00:43.288Z,16.24
2023-09-22T07:03:12.423Z,16.38
2023-09-22T07:05:40.198Z,16.34
2023-09-22T07:08:07.871Z,16.41
2023-09-22T07:10:36.570Z,16.39
2023-09-22T07:13:04.832Z,16.40
2023-09-22T07:15:34.567Z,16.25
2023-09-22T07:18:02.374Z,16.15
2023-09-22T07:20:31.383Z,16.27
2023-09-22T07:22:58.947Z,16.05
2023-09-22T07:25:27.770Z,15.77
2023-09-22T07:27:56.135Z,15.86
2023-09-22T07:30:23.929Z,16.06
2023-09-22T07:32:52.404Z,16.17
2023-09-22T07:35:20.210Z,16.07
2023-09-22T07:37:49.067Z,16.16
2023-09-22T07:40:18.013Z,16.14
2023-09-22T07:42:46.323Z,16.20
2023-09-22T07:45:14.529Z,15.89
2023-09-22T07:47:42.161Z,16.13
2023-09-22T07:50:10.559Z,16.00
2023-09-22T07:52:38.165Z,15.93
2023-09-22T07:55:08.117Z,16.05
2023-09-22T07:57:36.646Z,16.00
2023-09-22T08:00:07.655Z,15.83
2023-09-22T08:02:35.294Z,16.03
2023-09-22T08:05:02.968Z,16.07
2023-09-22T08:07:30.548Z,15.96
2023-09-22T08:09:58.154Z,16.09
2023-09-22T08:12:27.110Z,16.10
2023-09-22T08:14:58.092Z,15.87
2023-09-22T08:17:26.138Z,16.12
2023-09-22T08:19:54.213Z,16.19
2023-09-22T08:22:21.796Z,16.05
2023-09-22T08:24:49.869Z,16.03
2023-09-22T08:27:17.825Z,16.26
2023-09-22T08:29:48.564Z,16.24
2023-09-22T08:32:16.391Z,16.40
2023-09-22T08:34:43.951Z,16.36
2023-09-22T08:37:11.604Z,16.15
2023-09-22T08:39:39.517Z,16.27
2023-09-22T08:42:07.161Z,16.20
2023-09-22T08:44:35.412Z,16.13
2023-09-22T08:47:04.375Z,16.28
2023-09-22T08:49:32.007Z,16.13
2023-09-22T08:52:01.233Z,16.15
2023-09-22T08:54:31.538Z,16.24
2023-09-22T08:56:59.504Z,16.28
2023-09-22T08:59:28.932Z,16.34
2023-09-22T09:01:57.034Z,16.23
2023-09-22T09:04:33.024Z,16.34
2023-09-22T09:07:00.844Z,16.23
2023-09-22T09:09:28.485Z,16.04
2023-09-22T09:12:00.476Z,16.08
2023-09-22T09:14:29.390Z,16.17
2023-09-22T09:16:58.028Z,16.24
2023-09-22T09:19:27.281Z,16.18
2023-09-22T09:22:07.414Z,16.13
2023-09-22T09:24:35.361Z,16.11
2023-09-22T09:27:18.781Z,16.20
2023-09-22T09:29:48.327Z,16.11
2023-09-22T09:32:26.585Z,16.03
2023-09-22T09:34:54.696Z,15.74
2023-09-22T09:37:24.259Z,15.76
2023-09-22T09:39:53.724Z,15.85
2023-09-22T09:42:24.528Z,15.71
2023-09-22T09:44:53.636Z,15.96
2023-09-22T09:47:28.331Z,15.48
2023-09-22T09:49:59.093Z,15.87
2023-09-22T09:52:33.466Z,15.99
2023-09-22T09:55:10.444Z,15.88
2023-09-22T09:57:40.411Z,15.90
2023-09-22T10:00:14.952Z,15.73
2023-09-22T10:02:45.124Z,15.96
2023-09-22T10:05:14.284Z,15.97
2023-09-22T10:07:43.639Z,15.87
2023-09-22T10:10:12.817Z,15.87
2023-09-22T10:12:41.361Z,16.00
2023-09-22T10:15:10.138Z,15.97
2023-09-22T10:17:38.155Z,16.10
2023-09-22T10:20:11.911Z,16.01
2023-09-22T10:22:40.027Z,15.84
2023-09-22T10:25:34.796Z,16.07
2023-09-22T10:28:05.578Z,16.07
2023-09-22T10:31:05.569Z,15.97
2023-09-22T10:33:34.059Z,16.28
2023-09-22T10:36:02.246Z,16.01
2023-09-22T10:38:29.850Z,15.83
2023-09-22T10:41:07.848Z,15.90
2023-09-22T10:43:35.626Z,15.92
2023-09-22T10:46:03.762Z,16.06
2023-09-22T10:48:36.430Z,15.98
2023-09-22T10:51:06.808Z,15.95
2023-09-22T10:53:39.558Z,16.09
2023-09-22T10:56:08.491Z,15.98
2023-09-22T10:58:36.323Z,15.92
2023-09-22T11:01:06.196Z,15.91
2023-09-22T11:03:36.321Z,15.94
2023-09-22T11:06:07.305Z,16.05
2023-09-22T11:08:35.988Z,16.03
2023-09-22T11:11:04.146Z,16.00
2023-09-22T11:13:33.170Z,16.10
2023-09-22T11:16:03.276Z,15.98
2023-09-22T11:18:33.555Z,16.09
2023-09-22T11:21:03.571Z,15.78
2023-09-22T11:23:31.395Z,15.89
2023-09-22T11:25:59.886Z,15.84
2023-09-22T11:28:28.781Z,15.87
2023-09-22T11:31:07.912Z,16.00
2023-09-22T11:33:35.554Z,16.19
2023-09-22T11:36:04.394Z,16.16
2023-09-22T11:38:33.166Z,16.06
2023-09-22T11:41:09.416Z,16.16
2023-09-22T11:43:41.060Z,16.17
2023-09-22T11:46:12.099Z,16.09
2023-09-22T11:49:02.569Z,16.14
2023-09-22T11:51:51.839Z,16.13
2023-09-22T11:54:21.688Z,16.15
2023-09-22T11:56:50.306Z,15.98
2023-09-22T11:59:20.037Z,15.92
2023-09-22T12:01:51.131Z,16.05
2023-09-22T12:04:20.384Z,15.96
2023-09-22T12:06:50.054Z,15.63
2023-09-22T12:09:17.868Z,16.04
2023-09-22T12:11:46.469Z,16.10
2023-09-22T12:14:14.876Z,16.09
2023-09-22T12:16:43.361Z,15.82
2023-09-22T12:19:12.398Z,16.02
2023-09-22T12:21:40.040Z,15.98
2023-09-22T12:24:08.230Z,16.08
2023-09-22T12:26:35.771Z,15.95
2023-09-22T12:29:05.425Z,16.10
2023-09-22T12:31:34.513Z,16.03
2023-09-22T12:34:02.544Z,15.94
2023-09-22T12:36:31.745Z,16.02
2023-09-22T12:38:59.939Z,15.94
2023-09-22T12:41:27.547Z,16.03
2023-09-22T12:43:56.083Z,16.06
2023-09-22T12:46:24.295Z,16.01
2023-09-22T12:48:52.869Z,16.07
2023-09-22T12:51:20.390Z,16.04
2023-09-22T12:53:52.008Z,16.07
2023-09-22T12:56:19.526Z,15.98
2023-09-22T12:58:47.168Z,15.94
2023-09-22T13:01:16.425Z,15.96
2023-09-22T13:03:45.576Z,16.05
2023-09-22T13:06:13.493Z,15.66
2023-09-22T13:08:41.135Z,15.86
2023-09-22T13:11:10.154Z,16.16
2023-09-22T13:13:37.848Z,16.10
2023-09-22T13:16:05.843Z,16.25
2023-09-22T13:18:33.414Z,16.20
2023-09-22T13:21:00.972Z,16.16
2023-09-22T13:23:29.433Z,16.11
2023-09-22T13:25:58.537Z,16.07
2023-09-22T13:28:28.258Z,16.15
2023-09-22T13:30:56.091Z,16.13
2023-09-22T13:33:26.985Z,16.17
2023-09-22T13:35:56.525Z,16.02
2023-09-22T13:38:24.119Z,16.08
2023-09-22T13:40:52.119Z,16.02
2023-09-22T13:43:21.802Z,15.96
2023-09-22T13:45:50.717Z,15.93
2023-09-22T13:48:18.421Z,16.06
2023-09-22T13:50:53.289Z,16.11
2023-09-22T13:53:20.932Z,16.18
2023-09-22T13:55:48.517Z,16.26
2023-09-22T13:58:16.322Z,16.29
2023-09-22T14:00:43.930Z,16.21
2023-09-22T14:03:12.963Z,16.16
2023-09-22T14:05:42.614Z,16.01
2023-09-22T14:08:10.727Z,16.01
2023-09-22T14:10:39.118Z,16.05
2023-09-22T14:13:07.898Z,16.21
2023-09-22T14:15:35.524Z,16.18
2023-09-22T14:18:04.131Z,16.07
2023-09-22T14:20:33.400Z,16.08
2023-09-22T14:23:01.375Z,16.03
2023-09-22T14:25:29.068Z,15.87
2023-09-22T14:27:56.937Z,15.97
2023-09-22T14:30:25.485Z,15.95
2023-09-22T14:32:53.587Z,15.93
2023-09-22T14:35:21.113Z,15.96
2023-09-22T14:37:49.973Z,15.97
2023-09-22T14:40:17.672Z,15.86
2023-09-22T14:42:45.475Z,15.67
2023-09-22T14:45:13.121Z,15.52
2023-09-22T14:47:40.899Z,15.72
2023-09-22T14:50:08.999Z,15.83
2023-09-22T14:52:36.657Z,15.72
2023-09-22T14:55:06.594Z,15.97
2023-09-22T14:57:34.114Z,15.80
2023-09-22T15:00:01.729Z,15.73
2023-09-22T15:02:29.699Z,15.69
2023-09-22T15:04:57.444Z,15.90
2023-09-22T15:07:25.088Z,16.00
2023-09-22T15:09:52.685Z,15.94
2023-09-22T15:12:21.560Z,15.90
2023-09-22T15:14:49.067Z,15.68
2023-09-22T15:17:16.648Z,15.63
2023-09-22T15:19:44.298Z,15.80
2023-09-22T15:22:11.929Z,15.42
2023-09-22T15:24:39.534Z,15.80
2023-09-22T15:27:07.072Z,15.57
2023-09-22T15:29:35.951Z,15.78
2023-09-22T15:32:04.706Z,15.73
2023-09-22T15:34:33.339Z,15.61
2023-09-22T15:37:01.344Z,15.57
2023-09-22T15:39:32.679Z,15.65
2023-09-22T15:42:02.426Z,15.67
2023-09-22T15:44:30.218Z,15.72
2023-09-22T15:47:00.440Z,15.70
2023-09-22T15:49:28.984Z,15.66
2023-09-22T15:51:56.617Z,15.62
2023-09-22T15:54:24.399Z,15.66
2023-09-22T15:56:51.991Z,15.62
2023-09-22T15:59:19.524Z,15.43
2023-09-22T16:01:47.362Z,15.09
2023-09-22T16:04:18.822Z,15.47
2023-09-22T16:06:46.438Z,15.56
2023-09-22T16:09:13.968Z,15.52
2023-09-22T16:11:41.525Z,15.47
2023-09-22T16:14:09.147Z,15.36
2023-09-22T16:16:37.723Z,15.48
2023-09-22T16:19:06.815Z,15.37
2023-09-22T16:21:36.061Z,15.39
2023-09-22T16:24:04.808Z,15.48
2023-09-22T16:26:32.728Z,15.42
2023-09-22T16:29:00.323Z,15.56
2023-09-22T16:31:28.021Z,15.64
2023-09-22T16:33:56.168Z,15.56
2023-09-22T16:36:23.821Z,15.52
2023-09-22T16:38:52.775Z,15.48
2023-09-22T16:41:20.787Z,15.46
2023-09-22T16:43:48.522Z,15.42
2023-09-22T16:46:16.287Z,15.48
2023-09-22T16:48:44.179Z,15.43
2023-09-22T16:51:11.951Z,15.26
2023-09-22T16:53:39.462Z,15.37
2023-09-22T16:56:11.545Z,15.31
2023-09-22T16:58:41.682Z,15.43
2023-09-22T17:01:11.649Z,15.29
2023-09-22T17:03:39.896Z,15.38
2023-09-22T17:06:07.817Z,15.36
2023-09-22T17:08:35.876Z,15.44
2023-09-22T17:11:06.288Z,15.05
2023-09-22T17:13:35.575Z,15.40
2023-09-22T17:16:04.441Z,15.24
2023-09-22T17:18:32.087Z,15.31
2023-09-22T17:21:00.303Z,15.36
2023-09-22T17:23:28.001Z,15.40
2023-09-22T17:25:56.180Z,15.34
2023-09-22T17:28:23.983Z,15.09
2023-09-22T17:30:59.779Z,15.30
2023-09-22T17:33:27.377Z,15.01
2023-09-22T17:35:55.034Z,15.17
2023-09-22T17:38:22.597Z,15.15
2023-09-22T17:40:51.142Z,15.26
2023-09-22T17:43:18.839Z,15.14
2023-09-22T17:45:58.481Z,15.15
2023-09-22T17:48:26.158Z,15.07
2023-09-22T17:50:53.801Z,14.90
2023-09-22T17:53:22.084Z,15.09
2023-09-22T17:55:49.579Z,14.84
2023-09-22T17:58:18.541Z,15.01
2023-09-22T18:00:46.179Z,14.96
2023-09-22T18:03:15.228Z,15.03
2023-09-22T18:05:42.781Z,15.07
2023-09-22T18:08:10.309Z,14.99
2023-09-22T18:10:39.103Z,14.91
2023-09-22T18:13:08.005Z,14.42
2023-09-22T18:15:36.425Z,14.44
2023-09-22T18:18:10.951Z,14.96
2023-09-22T18:20:40.645Z,14.43
2023-09-22T18:23:11.226Z,14.71
2023-09-22T18:25:40.058Z,14.99
2023-09-22T18:28:07.782Z,14.33
2023-09-22T18:30:37.580Z,14.68
2023-09-22T18:33:05.678Z,14.24
2023-09-22T18:35:33.267Z,14.06
2023-09-22T18:38:02.576Z,14.77
2023-09-22T18:40:30.722Z,14.87
2023-09-22T18:42:58.370Z,14.88
2023-09-22T18:45:26.078Z,14.89
2023-09-22T18:47:53.855Z,14.67
2023-09-22T18:50:22.205Z,14.75
2023-09-22T18:52:51.758Z,14.73
2023-09-22T18:55:20.689Z,14.55
2023-09-22T18:57:48.302Z,14.64
2023-09-22T19:00:16.369Z,14.65
2023-09-22T19:02:44.066Z,14.64
2023-09-22T19:05:12.881Z,14.50
2023-09-22T19:07:41.420Z,14.45
2023-09-22T19:10:10.995Z,14.45
2023-09-22T19:12:42.345Z,14.55
2023-09-22T19:15:11.313Z,14.51
2023-09-22T19:17:39.079Z,14.50
2023-09-22T19:20:07.732Z,14.44
2023-09-22T19:22:35.309Z,14.50
2023-09-22T19:25:02.850Z,14.55
2023-09-22T19:27:31.311Z,14.61
2023-09-22T19:30:00.266Z,14.60
2023-09-22T19:32:27.919Z,14.60
2023-09-22T19:35:01.373Z,14.60
2023-09-22T19:37:29.087Z,14.75
2023-09-22T19:39:57.121Z,14.54
2023-09-22T19:42:24.692Z,14.74
2023-09-22T19:44:52.207Z,14.72
2023-09-22T19:47:21.163Z,14.67
2023-09-22T19:49:49.637Z,14.76
2023-09-22T19:52:17.257Z,14.07
2023-09-22T19:54:45.024Z,14.66
2023-09-22T19:57:12.925Z,14.72
2023-09-22T19:59:41.401Z,14.72
2023-09-22T20:02:10.204Z,14.76
2023-09-22T20:04:39.296Z,14.42
2023-09-22T20:07:06.884Z,14.39
2023-09-22T20:09:34.409Z,13.12
2023-09-22T20:12:02.003Z,14.15
2023-09-22T20:14:29.650Z,14.13
2023-09-22T20:17:00.156Z,14.41
2023-09-22T20:19:27.847Z,14.56
2023-09-22T20:21:56.756Z,14.64
2023-09-22T20:24:24.427Z,14.47
2023-09-22T20:26:51.957Z,14.42
2023-09-22T20:29:19.513Z,14.54
2023-09-22T20:31:47.427Z,14.39
2023-09-22T20:34:15.055Z,14.19
2023-09-22T20:36:43.098Z,14.06
2023-09-22T20:39:12.122Z,13.61
2023-09-22T20:41:39.861Z,14.38
2023-09-22T20:44:07.857Z,14.18
2023-09-22T20:46:37.924Z,14.44
2023-09-22T20:49:06.304Z,14.41
2023-09-22T20:51:35.926Z,14.20
2023-09-22T20:54:03.916Z,14.01
2023-09-22T20:56:32.803Z,14.15
2023-09-22T20:59:00.406Z,13.87
2023-09-22T21:01:30.521Z,14.30
2023-09-22T21:03:58.424Z,14.15
2023-09-22T21:06:28.160Z,14.47
2023-09-22T21:08:56.205Z,14.09
2023-09-22T21:11:24.470Z,13.79
2023-09-22T21:13:56.456Z,14.28
2023-09-22T21:16:24.190Z,14.47
2023-09-22T21:18:54.075Z,14.11
2023-09-22T21:21:21.820Z,14.43
2023-09-22T21:23:49.423Z,14.04
2023-09-22T21:26:21.991Z,14.27
2023-09-22T21:28:49.705Z,14.32
2023-09-22T21:31:18.693Z,14.26
2023-09-22T21:33:47.207Z,13.98
2023-09-22T21:36:14.793Z,14.34
2023-09-22T21:38:42.352Z,14.48
2023-09-22T21:41:11.331Z,14.26
2023-09-22T21:43:39.269Z,14.21
2023-09-22T21:46:08.517Z,14.30
2023-09-22T21:48:38.997Z,14.34
2023-09-22T21:51:07.805Z,14.22
2023-09-22T21:53:35.338Z,14.32
2023-09-22T21:56:03.395Z,14.34
2023-09-22T21:58:31.022Z,14.18
2023-09-22T22:00:58.728Z,14.08
2023-09-22T22:03:28.194Z,14.26
2023-09-22T22:05:57.177Z,14.28
2023-09-22T22:08:27.478Z,14.17
2023-09-22T22:10:55.129Z,14.23
2023-09-22T22:13:23.955Z,14.16
2023-09-22T22:15:51.585Z,14.25
2023-09-22T22:18:19.227Z,14.30
2023-09-22T22:20:49.332Z,14.18
2023-09-22T22:23:19.214Z,14.16
2023-09-22T22:25:47.866Z,14.18
2023-09-22T22:28:16.363Z,14.16
2023-09-22T22:30:44.477Z,14.03
2023-09-22T22:33:15.690Z,14.06
2023-09-22T22:35:45.764Z,14.07
2023-09-22T22:38:15.175Z,14.02
2023-09-22T22:40:44.128Z,14.09
2023-09-22T22:43:12.111Z,14.02
2023-09-22T22:45:40.476Z,14.05
2023-09-22T22:48:10.079Z,14.04
2023-09-22T22:50:38.621Z,13.96
2023-09-22T22:53:07.317Z,14.01
2023-09-22T22:55:35.775Z,13.96
2023-09-22T22:58:09.914Z,14.00
2023-09-22T23:00:45.173Z,13.92
2023-09-22T23:03:13.665Z,13.86
2023-09-22T23:05:42.167Z,13.91
2023-09-22T23:08:11.866Z,13.85
2023-09-22T23:10:44.388Z,13.97
2023-09-22T23:13:18.483Z,13.89
2023-09-22T23:15:48.924Z,13.92
2023-09-22T23:18:17.577Z,13.81
2023-09-22T23:20:45.536Z,13.81
2023-09-22T23:23:14.299Z,13.84
2023-09-22T23:25:42.719Z,13.60
2023-09-22T23:28:12.870Z,13.58
2023-09-22T23:30:41.798Z,13.55
2023-09-22T23:33:09.637Z,13.68
2023-09-22T23:35:38.306Z,13.55
2023-09-22T23:38:08.386Z,13.68
2023-09-22T23:40:36.661Z,13.61
2023-09-22T23:43:09.724Z,13.64
2023-09-22T23:45:40.127Z,13.48
2023-09-22T23:48:09.530Z,13.45
2023-09-22T23:50:37.702Z,13.33
2023-09-22T23:53:06.051Z,13.12
2023-09-22T23:55:34.885Z,13.59
2023-09-22T23:58:03.689Z,13.20
